Time;durP1;ratioP1;P1;durP2;ratioP2;P2;SDS_P1;SDS_P2;PMS_P1;PMS_P2;Temp;Humidity;BMP_temperature;BMP_pressure;BME280_temperature;BME280_humidity;BME280_pressure;Samples;Min_cycle;Max_cycle;Signal;HPM_P1;HPM_P2
2023/01/31 00:02:48;;;;;;;;;;;;;;;-13.83;63.48;97151.22;6220543;28;20399;-69
2023/01/31 00:05:50;;;;;;;;;;;;;;;-13.54;63.18;97141.19;6219539;28;19921;-70
2023/01/31 00:08:51;;;;;;;;;;;;;;;-13.61;62.65;97148.59;6219709;28;19936;-69
2023/01/31 00:11:54;;;;;;;;;;;;;;;-13.88;62.97;97145.13;6220556;28;19925;-69
2023/01/31 00:14:59;;;;;;;;;;;;;;;-14.05;63.64;97142.03;6219919;28;19948;-69
2023/01/31 00:18:00;;;;;;;;;;;;;;;-14.07;63.50;97136.03;6219720;28;20315;-69
2023/01/31 00:21:08;;;;;;;;;;;;;;;-14.11;63.54;97135.09;6220264;28;19925;-69
2023/01/31 00:24:12;;;;;;;;;;;;;;;-13.99;63.96;97139.69;6220309;28;20020;-69
2023/01/31 00:27:13;;;;;;;;;;;;;;;-13.85;63.88;97138.50;6219662;28;19926;-69
2023/01/31 00:30:15;;;;;;;;;;;;;;;-13.80;63.45;97152.16;6219854;28;19960;-69
2023/01/31 00:33:15;;;;;;;;;;;;;;;-13.71;63.67;97148.22;6219935;28;19925;-68
2023/01/31 00:36:18;;;;;;;;;;;;;;;-13.52;64.03;97142.13;6219275;28;20037;-69
2023/01/31 00:39:21;;;;;;;;;;;;;;;-13.19;63.61;97142.28;6220046;28;19929;-69
2023/01/31 00:42:22;;;;;;;;;;;;;;;-13.13;63.85;97148.44;6220305;28;19925;-69
2023/01/31 00:45:28;;;;;;;;;;;;;;;-13.01;63.78;97147.09;6224438;28;19925;-68
2023/01/31 00:48:31;;;;;;;;;;;;;;;-12.76;64.00;97139.41;6224373;28;19929;-69
2023/01/31 00:51:32;;;;;;;;;;;;;;;-12.27;64.11;97140.81;6224377;28;19932;-69
2023/01/31 00:54:35;;;;;;;;;;;;;;;-12.37;64.11;97137.97;6224239;28;19980;-69
2023/01/31 00:57:39;;;;;;;;;;;;;;;-12.24;64.54;97143.44;6224385;28;19925;-68
2023/01/31 01:00:40;;;;;;;;;;;;;;;-12.27;64.22;97140.81;6222820;28;20020;-69
2023/01/31 01:03:42;;;;;;;;;;;;;;;-12.29;64.26;97139.06;6223445;28;20012;-68
2023/01/31 01:06:46;;;;;;;;;;;;;;;-12.42;64.29;97135.34;6223842;28;19988;-69
2023/01/31 01:09:51;;;;;;;;;;;;;;;-12.27;64.36;97129.84;6224130;28;19930;-70
2023/01/31 01:12:54;;;;;;;;;;;;;;;-12.16;63.10;97131.00;6224025;28;19922;-68
2023/01/31 01:15:55;;;;;;;;;;;;;;;-12.52;63.62;97129.13;6223300;28;19991;-68
2023/01/31 01:18:56;;;;;;;;;;;;;;;-12.79;63.41;97144.41;6223096;28;19926;-69
2023/01/31 01:21:57;;;;;;;;;;;;;;;-12.84;64.26;97135.78;6223064;28;19925;-69
2023/01/31 01:24:59;;;;;;;;;;;;;;;-12.90;64.30;97140.69;6223056;28;20020;-69
2023/01/31 01:28:00;;;;;;;;;;;;;;;-13.10;63.91;97132.47;6223123;28;19932;-69
2023/01/31 01:31:05;;;;;;;;;;;;;;;-13.15;64.32;97139.06;6222843;28;19925;-69
2023/01/31 01:34:07;;;;;;;;;;;;;;;-13.17;64.70;97131.41;6223104;28;19926;-69
2023/01/31 01:37:10;;;;;;;;;;;;;;;-13.16;64.68;97143.28;6222979;28;19925;-70
2023/01/31 01:40:14;;;;;;;;;;;;;;;-13.15;64.38;97144.97;6222804;28;19940;-69
2023/01/31 01:43:15;;;;;;;;;;;;;;;-13.11;64.61;97143.41;6222852;28;20319;-68
2023/01/31 01:46:23;;;;;;;;;;;;;;;-13.06;64.10;97146.06;6222204;28;19925;-69
2023/01/31 01:49:24;;;;;;;;;;;;;;;-12.97;64.39;97151.41;6222049;28;19932;-68
2023/01/31 01:52:32;;;;;;;;;;;;;;;-12.94;64.63;97156.59;6223189;28;20012;-68
2023/01/31 01:55:41;;;;;;;;;;;;;;;-12.93;64.01;97153.25;6221545;28;19925;-68
2023/01/31 01:58:46;;;;;;;;;;;;;;;-13.02;63.82;97150.41;6222102;28;19971;-68
2023/01/31 02:01:53;;;;;;;;;;;;;;;-13.00;63.59;97138.66;6222696;28;19925;-69
2023/01/31 02:05:05;;;;;;;;;;;;;;;-13.33;63.25;97139.38;6221418;28;20023;-69
2023/01/31 02:08:06;;;;;;;;;;;;;;;-13.44;63.33;97136.50;6222496;28;20011;-69
2023/01/31 02:11:20;;;;;;;;;;;;;;;-13.60;63.67;97135.13;6221660;28;20448;-69
2023/01/31 02:14:21;;;;;;;;;;;;;;;-13.60;63.44;97144.38;6222662;28;20317;-69
2023/01/31 02:17:50;;;;;;;;;;;;;;;-13.47;63.63;97141.47;6221265;28;19937;-68
2023/01/31 02:20:54;;;;;;;;;;;;;;;-13.24;63.73;97137.09;6221746;28;19992;-69
2023/01/31 02:24:13;;;;;;;;;;;;;;;-13.31;63.12;97137.72;6221703;28;19925;-69
2023/01/31 02:27:23;;;;;;;;;;;;;;;-13.22;63.17;97137.97;6221809;28;19925;-71
2023/01/31 02:30:30;;;;;;;;;;;;;;;-13.16;62.95;97133.13;6221547;28;20014;-69
2023/01/31 02:33:59;;;;;;;;;;;;;;;-13.19;62.83;97133.03;6221786;28;19925;-70
2023/01/31 02:37:03;;;;;;;;;;;;;;;-13.20;62.75;97138.91;6220114;28;19929;-69
2023/01/31 02:40:09;;;;;;;;;;;;;;;-13.06;62.47;97133.41;6221698;28;20414;-70
2023/01/31 02:43:13;;;;;;;;;;;;;;;-13.06;62.47;97133.41;6221236;28;19925;-69
2023/01/31 02:46:16;;;;;;;;;;;;;;;-12.88;62.58;97128.91;6221042;28;19932;-70
2023/01/31 02:49:35;;;;;;;;;;;;;;;-12.90;61.60;97131.41;6220942;28;19926;-68
2023/01/31 02:52:44;;;;;;;;;;;;;;;-12.77;61.46;97125.00;6221516;28;19948;-71
2023/01/31 02:59:25;;;;;;;;;;;;;;;-12.64;60.94;97125.41;6221397;28;19925;-69
2023/01/31 03:02:27;;;;;;;;;;;;;;;-12.83;60.78;97127.38;6220859;28;19932;-69
2023/01/31 03:05:30;;;;;;;;;;;;;;;-12.67;61.25;97128.69;6220743;28;19976;-68
2023/01/31 03:08:31;;;;;;;;;;;;;;;-12.79;61.54;97134.25;6220746;28;19925;-69
2023/01/31 03:11:42;;;;;;;;;;;;;;;-12.79;61.50;97130.84;6221377;28;19925;-69
2023/01/31 03:14:57;;;;;;;;;;;;;;;-12.82;61.79;97130.75;6221215;28;19921;-70
2023/01/31 03:18:09;;;;;;;;;;;;;;;-12.89;61.57;97132.25;6219364;28;19925;-68
2023/01/31 03:21:16;;;;;;;;;;;;;;;-12.71;62.21;97140.41;6220430;28;20407;-68
2023/01/31 03:24:18;;;;;;;;;;;;;;;-12.72;61.82;97141.22;6221257;28;20418;-69
2023/01/31 03:27:22;;;;;;;;;;;;;;;-12.42;61.87;97150.56;6219853;28;20458;-69
2023/01/31 03:30:35;;;;;;;;;;;;;;;-12.44;61.86;97149.63;6218459;28;20310;-70
2023/01/31 03:33:39;;;;;;;;;;;;;;;-12.30;62.42;97161.03;6220557;28;19922;-69
2023/01/31 03:36:58;;;;;;;;;;;;;;;-12.24;62.33;97156.13;6220464;28;19925;-70
2023/01/31 03:40:04;;;;;;;;;;;;;;;-12.27;62.05;97156.03;6219893;28;19926;-69
2023/01/31 03:43:06;;;;;;;;;;;;;;;-11.99;62.60;97161.88;6219650;28;19933;-73
2023/01/31 03:46:15;;;;;;;;;;;;;;;-11.81;62.24;97157.25;6218641;28;20434;-71
2023/01/31 03:49:18;;;;;;;;;;;;;;;-11.66;61.71;97166.97;6219585;28;20381;-68
2023/01/31 03:52:25;;;;;;;;;;;;;;;-11.83;62.08;97169.06;6215581;28;19947;-72
2023/01/31 03:55:30;;;;;;;;;;;;;;;-11.81;62.54;97176.72;6217663;28;20043;-68
2023/01/31 03:58:39;;;;;;;;;;;;;;;-11.82;62.45;97180.94;6217033;28;19925;-72
2023/01/31 04:01:43;;;;;;;;;;;;;;;-11.77;62.36;97176.00;6219089;28;19929;-75
2023/01/31 04:04:50;;;;;;;;;;;;;;;-11.90;62.23;97182.44;6220391;28;20383;-73
2023/01/31 04:07:51;;;;;;;;;;;;;;;-11.96;62.80;97184.81;6205957;28;19926;-72
2023/01/31 04:10:56;;;;;;;;;;;;;;;-12.03;62.91;97187.97;6219674;28;19925;-72
2023/01/31 04:14:00;;;;;;;;;;;;;;;-12.11;62.97;97187.78;6213473;28;19925;-71
2023/01/31 04:17:01;;;;;;;;;;;;;;;-12.17;62.73;97186.72;6220175;28;20314;-72
2023/01/31 04:20:04;;;;;;;;;;;;;;;-12.29;62.85;97187.25;6224846;28;19926;-73
2023/01/31 04:23:05;;;;;;;;;;;;;;;-12.37;63.26;97184.47;6224154;28;19933;-73
2023/01/31 04:26:09;;;;;;;;;;;;;;;-12.42;63.31;97191.13;6223592;28;19925;-73
2023/01/31 04:29:11;;;;;;;;;;;;;;;-12.39;62.97;97193.75;6232255;28;19936;-69
2023/01/31 04:32:17;;;;;;;;;;;;;;;-12.49;62.39;97186.66;6231254;28;20387;-72
2023/01/31 04:35:18;;;;;;;;;;;;;;;-12.41;63.11;97181.81;6219941;28;20011;-73
2023/01/31 04:38:19;;;;;;;;;;;;;;;-12.38;62.62;97186.97;6224787;28;20445;-71
2023/01/31 04:41:23;;;;;;;;;;;;;;;-12.32;62.75;97185.47;6230005;28;19937;-73
2023/01/31 04:44:29;;;;;;;;;;;;;;;-12.27;62.52;97181.41;6223970;28;19925;-73
2023/01/31 04:47:36;;;;;;;;;;;;;;;-12.23;62.13;97178.16;6219699;28;19925;-71
2023/01/31 04:50:38;;;;;;;;;;;;;;;-11.99;61.96;97177.13;6221310;28;20398;-72
2023/01/31 04:53:43;;;;;;;;;;;;;;;-12.08;61.68;97176.88;6206523;28;20298;-72
2023/01/31 04:56:44;;;;;;;;;;;;;;;-11.94;61.12;97190.78;6223407;28;20338;-72
2023/01/31 05:00:00;;;;;;;;;;;;;;;-11.58;60.19;97182.41;6222700;28;20015;-73
2023/01/31 05:03:05;;;;;;;;;;;;;;;-11.71;59.80;97183.75;6222884;28;20011;-73
2023/01/31 05:06:07;;;;;;;;;;;;;;;-11.68;59.76;97183.00;6223068;28;19922;-73
2023/01/31 05:09:11;;;;;;;;;;;;;;;-11.76;59.76;97186.16;6223221;28;19925;-72
2023/01/31 05:12:13;;;;;;;;;;;;;;;-11.57;60.46;97179.06;6220869;28;19925;-73
2023/01/31 05:15:14;;;;;;;;;;;;;;;-11.38;59.93;97183.78;6220671;28;20076;-72
2023/01/31 05:18:18;;;;;;;;;;;;;;;-11.16;59.98;97176.69;6222480;28;19925;-72
2023/01/31 05:21:19;;;;;;;;;;;;;;;-10.83;59.19;97176.66;6222149;28;19925;-73
2023/01/31 05:24:23;;;;;;;;;;;;;;;-10.68;58.36;97178.66;6215630;28;20079;-73
2023/01/31 05:27:25;;;;;;;;;;;;;;;-10.79;58.79;97175.88;6218564;28;20449;-73
2023/01/31 05:30:27;;;;;;;;;;;;;;;-10.63;59.09;97177.09;6214455;28;19936;-73
2023/01/31 05:33:30;;;;;;;;;;;;;;;-10.58;58.59;97180.59;6216666;28;20338;-73
2023/01/31 05:36:43;;;;;;;;;;;;;;;-10.43;59.08;97180.94;6216792;28;20457;-72
2023/01/31 05:40:14;;;;;;;;;;;;;;;-10.09;58.64;97179.06;6202511;28;20362;-72
2023/01/31 05:43:34;;;;;;;;;;;;;;;-9.80;58.26;97181.34;6213327;28;20014;-72
2023/01/31 05:46:38;;;;;;;;;;;;;;;-9.54;58.13;97192.91;6223225;28;19925;-73
2023/01/31 05:49:48;;;;;;;;;;;;;;;-9.28;57.12;97187.41;6198451;28;19940;-73
2023/01/31 05:53:02;;;;;;;;;;;;;;;-9.02;55.61;97187.00;6213934;28;19941;-73
2023/01/31 05:56:09;;;;;;;;;;;;;;;-8.92;55.86;97184.59;6214292;28;20190;-73
2023/01/31 05:59:43;;;;;;;;;;;;;;;-8.44;55.47;97187.88;6217440;28;19921;-74
2023/01/31 06:02:50;;;;;;;;;;;;;;;-7.66;55.07;97181.22;6220760;28;19935;-72
2023/01/31 06:05:55;;;;;;;;;;;;;;;-7.09;51.37;97174.13;6216431;28;20357;-72
2023/01/31 06:09:02;;;;;;;;;;;;;;;-6.88;51.84;97189.66;6214970;28;19964;-73
2023/01/31 06:12:04;;;;;;;;;;;;;;;-6.37;50.75;97190.91;6217656;28;19925;-73
2023/01/31 06:15:09;;;;;;;;;;;;;;;-5.17;51.36;97193.94;6213736;28;20413;-73
2023/01/31 06:19:06;;;;;;;;;;;;;;;-2.99;48.96;97198.63;6196965;28;20429;-72
2023/01/31 06:22:20;;;;;;;;;;;;;;;-0.54;45.36;97195.94;6125981;28;19930;-73
2023/01/31 06:25:50;;;;;;;;;;;;;;;0.39;42.71;97185.66;6160140;28;20024;-72
2023/01/31 06:28:54;;;;;;;;;;;;;;;1.34;42.42;97188.81;6201728;28;19926;-74
2023/01/31 06:32:06;;;;;;;;;;;;;;;2.72;40.61;97191.31;6198299;28;20067;-74
2023/01/31 06:35:27;;;;;;;;;;;;;;;3.28;40.06;97204.38;6214683;28;19921;-73
2023/01/31 06:38:30;;;;;;;;;;;;;;;3.00;39.91;97204.38;6217641;28;19932;-72
2023/01/31 06:41:34;;;;;;;;;;;;;;;2.92;39.33;97207.22;6216065;28;19933;-71
2023/01/31 06:44:38;;;;;;;;;;;;;;;2.37;36.21;97204.38;6221226;28;19929;-72
2023/01/31 06:47:44;;;;;;;;;;;;;;;2.05;40.28;97202.66;6193311;28;19925;-76
2023/01/31 06:50:49;;;;;;;;;;;;;;;2.58;41.77;97212.50;6213768;28;20016;-75
2023/01/31 06:53:52;;;;;;;;;;;;;;;2.58;41.68;97208.16;6215491;28;19933;-75
2023/01/31 06:56:57;;;;;;;;;;;;;;;1.98;39.52;97201.97;6215321;28;20027;-76
2023/01/31 07:00:03;;;;;;;;;;;;;;;0.46;40.34;97203.69;6212993;28;19928;-75
2023/01/31 07:03:18;;;;;;;;;;;;;;;-0.39;43.05;97212.09;6182983;28;19975;-74
2023/01/31 07:06:26;;;;;;;;;;;;;;;-0.55;44.60;97209.72;6212524;28;19933;-75
2023/01/31 07:09:31;;;;;;;;;;;;;;;-0.38;43.84;97211.19;6213953;28;20351;-74
2023/01/31 07:12:36;;;;;;;;;;;;;;;-0.05;42.00;97204.59;6215663;28;20326;-75
2023/01/31 07:15:41;;;;;;;;;;;;;;;0.59;42.02;97212.88;6213066;28;20404;-74
2023/01/31 07:18:45;;;;;;;;;;;;;;;2.27;39.23;97208.16;6215145;28;20414;-74
2023/01/31 07:21:50;;;;;;;;;;;;;;;3.23;37.32;97201.94;6210545;28;19929;-74
2023/01/31 07:24:55;;;;;;;;;;;;;;;3.13;37.91;97200.50;6216565;28;20460;-74
2023/01/31 07:28:13;;;;;;;;;;;;;;;2.78;35.18;97198.97;6214747;28;19925;-74
2023/01/31 07:31:17;;;;;;;;;;;;;;;1.63;37.93;97199.38;6211748;28;20595;-74
2023/01/31 07:34:23;;;;;;;;;;;;;;;1.44;39.43;97204.16;6211459;28;19930;-75
2023/01/31 07:37:29;;;;;;;;;;;;;;;1.35;38.92;97202.63;6217454;28;19926;-74
2023/01/31 07:40:33;;;;;;;;;;;;;;;1.30;39.28;97207.94;6214141;28;19932;-75
2023/01/31 07:43:37;;;;;;;;;;;;;;;1.74;38.48;97213.78;6196616;28;19926;-74
2023/01/31 07:46:47;;;;;;;;;;;;;;;2.25;37.55;97205.56;6212218;28;19926;-74
2023/01/31 07:49:53;;;;;;;;;;;;;;;2.12;37.37;97206.78;6214677;28;20484;-75
2023/01/31 07:52:59;;;;;;;;;;;;;;;1.64;37.08;97191.56;6214879;28;20278;-75
2023/01/31 07:56:09;;;;;;;;;;;;;;;1.34;37.65;97194.00;6217474;28;19922;-74
2023/01/31 07:59:12;;;;;;;;;;;;;;;0.98;38.54;97190.50;6217347;28;19929;-75
2023/01/31 08:05:36;;;;;;;;;;;;;;;0.96;37.47;97199.19;6218380;28;19921;-75
2023/01/31 08:08:43;;;;;;;;;;;;;;;1.26;34.58;97205.44;6219211;28;20497;-74
2023/01/31 08:11:50;;;;;;;;;;;;;;;1.40;36.47;97197.34;6218238;28;19929;-74
2023/01/31 08:14:54;;;;;;;;;;;;;;;1.47;36.58;97193.69;6216466;28;20075;-75
2023/01/31 08:17:59;;;;;;;;;;;;;;;1.50;35.21;97188.44;6219848;28;19925;-75
2023/01/31 08:21:07;;;;;;;;;;;;;;;0.96;36.08;97191.41;6219403;28;19929;-75
2023/01/31 08:24:11;;;;;;;;;;;;;;;0.11;36.70;97189.66;6217681;28;19979;-74
2023/01/31 08:27:54;;;;;;;;;;;;;;;-0.60;38.64;97193.44;6219423;28;20112;-74
2023/01/31 08:30:59;;;;;;;;;;;;;;;-0.83;38.15;97203.25;6163308;28;20302;-76
2023/01/31 08:34:03;;;;;;;;;;;;;;;-1.10;37.04;97194.16;6217266;28;19975;-75
2023/01/31 08:37:04;;;;;;;;;;;;;;;-1.44;36.14;97190.31;6217648;28;19971;-74
2023/01/31 08:40:08;;;;;;;;;;;;;;;-2.12;37.23;97184.19;6219137;28;19926;-75
2023/01/31 08:43:15;;;;;;;;;;;;;;;-2.37;35.90;97178.41;6226225;28;20426;-75
2023/01/31 08:46:20;;;;;;;;;;;;;;;-3.09;37.82;97186.66;6221366;28;19925;-74
2023/01/31 08:49:25;;;;;;;;;;;;;;;-3.07;37.99;97179.78;6221380;28;19926;-75
2023/01/31 08:52:34;;;;;;;;;;;;;;;-3.34;37.98;97175.66;6216008;28;19929;-74
2023/01/31 08:55:42;;;;;;;;;;;;;;;-3.17;37.76;97179.84;6213272;28;19929;-76
2023/01/31 08:58:47;;;;;;;;;;;;;;;-3.25;37.51;97173.91;6217184;28;19932;-75
2023/01/31 09:01:50;;;;;;;;;;;;;;;-3.82;38.35;97173.31;6217931;28;19951;-75
2023/01/31 09:04:56;;;;;;;;;;;;;;;-4.23;38.81;97176.81;6220615;28;19947;-75
2023/01/31 09:07:59;;;;;;;;;;;;;;;-4.67;39.96;97172.59;6218342;28;19926;-75
2023/01/31 09:11:05;;;;;;;;;;;;;;;-4.60;40.06;97166.59;6216927;28;19933;-74
2023/01/31 09:14:08;;;;;;;;;;;;;;;-4.83;40.43;97173.44;6216266;28;19932;-74
2023/01/31 09:17:11;;;;;;;;;;;;;;;-4.45;40.06;97167.44;6210191;28;19925;-74
2023/01/31 09:20:12;;;;;;;;;;;;;;;-4.04;39.56;97167.38;6216770;28;19929;-74
2023/01/31 09:23:19;;;;;;;;;;;;;;;-4.26;39.59;97171.69;6216626;28;20302;-75
2023/01/31 09:26:23;;;;;;;;;;;;;;;-4.07;39.55;97173.38;6212802;28;19929;-75
2023/01/31 09:29:28;;;;;;;;;;;;;;;-3.89;39.00;97181.88;6214646;28;19925;-74
2023/01/31 09:32:37;;;;;;;;;;;;;;;-3.52;38.69;97166.31;6195320;28;19926;-74
2023/01/31 09:35:58;;;;;;;;;;;;;;;-2.73;37.28;97173.53;6217732;28;20027;-75
2023/01/31 09:39:04;;;;;;;;;;;;;;;-0.91;34.54;97185.28;6219311;28;19925;-75
2023/01/31 09:42:13;;;;;;;;;;;;;;;-0.80;33.16;97172.22;6216845;28;20010;-75
2023/01/31 09:45:38;;;;;;;;;;;;;;;-0.08;32.92;97174.47;6216388;28;20303;-75
2023/01/31 09:48:48;;;;;;;;;;;;;;;0.13;31.24;97172.38;6216899;28;19968;-75
2023/01/31 09:51:56;;;;;;;;;;;;;;;0.54;31.68;97168.97;6214713;28;19991;-76
2023/01/31 09:55:14;;;;;;;;;;;;;;;2.88;29.35;97164.00;6217426;28;19931;-75
2023/01/31 09:58:27;;;;;;;;;;;;;;;5.01;26.83;97174.19;6214968;28;19979;-77
2023/01/31 10:01:34;;;;;;;;;;;;;;;6.30;26.31;97175.94;6213963;28;19925;-75
2023/01/31 10:05:16;;;;;;;;;;;;;;;5.62;25.75;97171.78;6215342;28;19952;-76
2023/01/31 10:08:39;;;;;;;;;;;;;;;4.17;27.26;97171.13;6126892;28;19931;-75
2023/01/31 10:11:50;;;;;;;;;;;;;;;2.09;29.91;97177.47;6215879;28;19948;-75
2023/01/31 10:15:00;;;;;;;;;;;;;;;1.72;30.50;97178.41;6218444;28;19928;-74
2023/01/31 10:18:14;;;;;;;;;;;;;;;0.99;30.85;97165.41;6221674;28;19932;-74
2023/01/31 10:21:24;;;;;;;;;;;;;;;1.85;29.11;97179.81;6222071;28;20351;-74
2023/01/31 10:24:51;;;;;;;;;;;;;;;2.63;28.51;97172.53;6221901;28;19925;-76
2023/01/31 10:28:12;;;;;;;;;;;;;;;3.18;27.43;97163.97;6212770;28;19948;-77
2023/01/31 10:31:33;;;;;;;;;;;;;;;2.52;28.27;97165.91;6200247;28;19932;-75
2023/01/31 10:35:00;;;;;;;;;;;;;;;2.56;28.62;97168.38;6215359;28;19943;-75
2023/01/31 10:38:23;;;;;;;;;;;;;;;2.86;28.53;97166.66;6215154;28;19925;-75
2023/01/31 10:46:01;;;;;;;;;;;;;;;2.58;28.41;97177.00;6172093;28;20304;-76
2023/01/31 10:49:18;;;;;;;;;;;;;;;2.12;29.38;97188.59;6188487;28;19940;-77
2023/01/31 10:52:44;;;;;;;;;;;;;;;0.94;30.66;97190.59;6188625;28;19930;-75
2023/01/31 11:00:26;;;;;;;;;;;;;;;-1.48;34.39;97204.09;6020068;28;19932;-76
2023/01/31 11:03:33;;;;;;;;;;;;;;;-2.83;36.43;97195.09;6176676;28;19941;-75
2023/01/31 11:06:36;;;;;;;;;;;;;;;-3.49;37.91;97197.16;6187313;28;19933;-75
2023/01/31 11:13:16;;;;;;;;;;;;;;;-3.71;37.64;97198.97;6192277;28;20217;-75
2023/01/31 11:16:30;;;;;;;;;;;;;;;-4.69;38.87;97202.56;6190515;28;20407;-76
2023/01/31 11:19:39;;;;;;;;;;;;;;;-5.04;39.34;97205.06;6193108;28;20020;-75
2023/01/31 11:22:46;;;;;;;;;;;;;;;-5.16;39.84;97200.78;6194246;28;20108;-75
2023/01/31 11:26:31;;;;;;;;;;;;;;;-5.34;40.23;97200.75;6195096;28;19933;-77
2023/01/31 11:30:07;;;;;;;;;;;;;;;-5.55;40.34;97204.91;6193800;28;20516;-76
2023/01/31 11:33:31;;;;;;;;;;;;;;;-5.93;41.51;97205.63;6216021;28;20036;-75
2023/01/31 11:36:47;;;;;;;;;;;;;;;-6.30;41.56;97208.84;6221113;28;20019;-75
2023/01/31 11:39:57;;;;;;;;;;;;;;;-6.47;42.22;97206.19;6221367;28;20027;-75
2023/01/31 11:43:08;;;;;;;;;;;;;;;-6.23;43.01;97201.19;6218393;28;19925;-75
2023/01/31 11:46:10;;;;;;;;;;;;;;;-4.96;41.05;97198.25;6217629;28;19925;-75
2023/01/31 11:49:28;;;;;;;;;;;;;;;-3.33;37.55;97201.38;6220056;28;19925;-74
2023/01/31 11:52:33;;;;;;;;;;;;;;;-1.93;35.58;97195.16;6222107;28;19932;-74
2023/01/31 11:55:43;;;;;;;;;;;;;;;-1.46;34.23;97198.94;6221302;28;20323;-75
2023/01/31 12:03:29;;;;;;;;;;;;;;;-4.93;39.77;97197.38;6191663;28;19925;-75
2023/01/31 12:06:39;;;;;;;;;;;;;;;-6.11;41.67;97200.44;6190553;28;19977;-76
2023/01/31 12:10:09;;;;;;;;;;;;;;;-6.97;43.72;97199.78;6202665;28;19968;-76
2023/01/31 12:13:16;;;;;;;;;;;;;;;-7.36;44.71;97206.25;6188373;28;20306;-75
2023/01/31 12:20:53;;;;;;;;;;;;;;;-8.07;44.96;97219.00;6210823;28;19925;-74
2023/01/31 12:24:10;;;;;;;;;;;;;;;-8.28;45.53;97215.31;6220524;28;20033;-75
2023/01/31 12:27:33;;;;;;;;;;;;;;;-8.45;45.50;97219.34;6222870;28;20011;-76
2023/01/31 12:30:43;;;;;;;;;;;;;;;-8.57;46.34;97217.47;6217385;28;20341;-75
2023/01/31 12:34:03;;;;;;;;;;;;;;;-8.67;46.67;97224.09;6219773;28;19926;-74
2023/01/31 12:37:04;;;;;;;;;;;;;;;-8.51;47.57;97226.91;6218002;28;19965;-75
2023/01/31 12:40:20;;;;;;;;;;;;;;;-8.77;48.31;97235.00;6213246;28;20468;-76
2023/01/31 12:43:49;;;;;;;;;;;;;;;-9.14;48.81;97238.59;6218678;28;20044;-76
2023/01/31 12:47:00;;;;;;;;;;;;;;;-9.44;48.91;97238.91;6202620;28;19926;-75
2023/01/31 12:50:16;;;;;;;;;;;;;;;-9.68;48.98;97245.25;6220635;28;19925;-76
2023/01/31 12:53:18;;;;;;;;;;;;;;;-9.80;49.20;97245.00;6223713;28;20311;-75
2023/01/31 12:56:21;;;;;;;;;;;;;;;-9.91;49.25;97241.38;6222706;28;19925;-75
2023/01/31 12:59:41;;;;;;;;;;;;;;;-10.00;49.22;97242.03;6222362;28;19940;-75
2023/01/31 13:03:02;;;;;;;;;;;;;;;-10.08;48.98;97248.63;6222977;28;20003;-75
2023/01/31 13:06:17;;;;;;;;;;;;;;;-10.18;49.09;97253.53;6223658;28;20011;-76
2023/01/31 13:09:34;;;;;;;;;;;;;;;-10.23;49.71;97244.09;6219779;28;19925;-76
2023/01/31 13:12:40;;;;;;;;;;;;;;;-10.12;50.07;97252.81;6215659;28;19925;-71
2023/01/31 13:15:48;;;;;;;;;;;;;;;-9.89;51.09;97255.00;6222826;28;19932;-76
2023/01/31 13:19:01;;;;;;;;;;;;;;;;;;;;;
2023/01/31 13:22:12;;;;;;;;;;;;;;;-10.31;51.89;97250.72;6220148;28;20395;-73
2023/01/31 13:25:45;;;;;;;;;;;;;;;-10.18;52.63;97248.44;6218032;28;20491;-70
2023/01/31 13:29:10;;;;;;;;;;;;;;;-10.58;52.98;97246.72;6220244;28;20285;-74
2023/01/31 13:32:27;;;;;;;;;;;;;;;-10.62;52.77;97250.00;6223163;28;19929;-72
2023/01/31 13:35:35;;;;;;;;;;;;;;;-10.54;53.46;97262.91;6216190;28;19926;-73
2023/01/31 13:38:41;;;;;;;;;;;;;;;-10.43;54.12;97261.47;6220337;28;19925;-73
2023/01/31 13:41:44;;;;;;;;;;;;;;;-10.72;53.94;97263.34;6219059;28;20409;-72
2023/01/31 13:44:48;;;;;;;;;;;;;;;-10.75;54.85;97263.25;6221425;28;19926;-73
2023/01/31 13:47:53;;;;;;;;;;;;;;;-10.86;54.98;97270.63;6223028;28;19926;-72
2023/01/31 13:51:16;;;;;;;;;;;;;;;-11.28;55.13;97263.63;6201175;28;20040;-73
2023/01/31 13:54:35;;;;;;;;;;;;;;;-11.51;55.28;97272.31;6221015;28;19933;-71
2023/01/31 13:57:45;;;;;;;;;;;;;;;-11.58;55.19;97271.25;6220667;28;19921;-73
2023/01/31 14:00:49;;;;;;;;;;;;;;;-11.55;54.95;97276.41;6218651;28;20350;-74
2023/01/31 14:04:12;;;;;;;;;;;;;;;-11.55;54.90;97277.31;6221163;28;19921;-73
2023/01/31 14:07:14;;;;;;;;;;;;;;;-11.56;55.30;97284.84;6221547;28;19948;-72
2023/01/31 14:10:17;;;;;;;;;;;;;;;-11.56;54.76;97280.63;6215752;28;19933;-73
2023/01/31 14:13:30;;;;;;;;;;;;;;;-11.32;55.15;97287.22;6219856;28;19926;-72
2023/01/31 14:16:35;;;;;;;;;;;;;;;-11.19;55.35;97283.31;6221679;28;19932;-72
2023/01/31 14:19:42;;;;;;;;;;;;;;;-11.45;55.24;97292.78;6218989;28;19925;-70
2023/01/31 14:23:05;;;;;;;;;;;;;;;-11.55;55.25;97286.56;6221288;28;19932;-72
2023/01/31 14:26:27;;;;;;;;;;;;;;;-11.48;55.40;97280.84;6221940;28;19926;-72
2023/01/31 14:29:33;;;;;;;;;;;;;;;-11.54;55.24;97283.22;6222108;28;19980;-73
2023/01/31 14:32:37;;;;;;;;;;;;;;;-11.71;55.27;97289.53;6220886;28;19931;-73
2023/01/31 14:35:49;;;;;;;;;;;;;;;-11.66;55.58;97298.09;6219368;28;19929;-73
2023/01/31 14:38:59;;;;;;;;;;;;;;;-11.70;56.13;97293.78;6219882;28;20378;-72
2023/01/31 14:42:00;;;;;;;;;;;;;;;-11.74;55.83;97289.44;6221361;28;19925;-72
2023/01/31 14:45:21;;;;;;;;;;;;;;;-11.71;56.25;97294.59;6201737;28;20354;-72
2023/01/31 14:48:37;;;;;;;;;;;;;;;-11.89;56.18;97290.72;6219577;28;19932;-71
2023/01/31 14:51:45;;;;;;;;;;;;;;;-11.92;56.43;97293.16;6220720;28;20139;-72
2023/01/31 14:55:07;;;;;;;;;;;;;;;-11.99;56.56;97286.22;6222331;28;19929;-72
2023/01/31 14:58:17;;;;;;;;;;;;;;;-12.04;57.27;97291.13;6223734;28;20331;-72
2023/01/31 15:01:20;;;;;;;;;;;;;;;-11.84;57.24;97294.22;6219000;28;19925;-73
2023/01/31 15:04:24;;;;;;;;;;;;;;;-11.91;57.30;97297.44;6236127;28;20402;-72
2023/01/31 15:07:38;;;;;;;;;;;;;;;-12.02;57.49;97294.59;6215565;28;19972;-74
2023/01/31 15:10:53;;;;;;;;;;;;;;;-12.14;58.31;97303.50;6218419;28;19936;-71
2023/01/31 15:13:57;;;;;;;;;;;;;;;-12.26;58.34;97307.38;6196479;28;19968;-74
2023/01/31 15:17:18;;;;;;;;;;;;;;;-12.40;57.88;97305.25;6222580;28;20143;-73
2023/01/31 15:20:27;;;;;;;;;;;;;;;-12.27;58.42;97293.00;6204492;28;19930;-73
2023/01/31 15:23:34;;;;;;;;;;;;;;;-12.24;58.69;97303.22;6213294;28;19930;-74
2023/01/31 15:26:39;;;;;;;;;;;;;;;-12.26;58.58;97297.22;6215277;28;19925;-74
2023/01/31 15:29:51;;;;;;;;;;;;;;;-12.21;58.55;97297.38;6219448;28;19932;-74
2023/01/31 15:32:57;;;;;;;;;;;;;;;-12.16;58.96;97300.06;6216639;28;19925;-74
2023/01/31 15:36:02;;;;;;;;;;;;;;;-12.54;58.71;97302.25;6212185;28;19933;-75
2023/01/31 15:39:24;;;;;;;;;;;;;;;-12.46;59.57;97295.75;6213482;28;20023;-74
2023/01/31 15:42:29;;;;;;;;;;;;;;;-12.27;58.98;97294.66;6222320;28;19925;-75
2023/01/31 15:45:31;;;;;;;;;;;;;;;-12.61;59.17;97296.16;6221112;28;19960;-74
2023/01/31 15:48:32;;;;;;;;;;;;;;;-12.90;59.30;97298.59;6226352;28;19932;-74
2023/01/31 15:51:36;;;;;;;;;;;;;;;-12.82;59.85;97301.41;6215271;28;19925;-73
2023/01/31 15:54:37;;;;;;;;;;;;;;;-12.96;59.43;97300.94;6220735;28;20526;-75
2023/01/31 15:57:51;;;;;;;;;;;;;;;-13.11;59.72;97303.78;6219094;28;19933;-74
2023/01/31 16:00:58;;;;;;;;;;;;;;;-12.97;59.78;97305.94;6218629;28;19925;-74
2023/01/31 16:04:01;;;;;;;;;;;;;;;-12.77;59.77;97299.00;6218951;28;19925;-73
2023/01/31 16:07:14;;;;;;;;;;;;;;;-12.94;59.85;97298.44;6214992;28;19925;-73
2023/01/31 16:10:20;;;;;;;;;;;;;;;-13.17;60.14;97293.47;6219418;28;19941;-75
2023/01/31 16:13:27;;;;;;;;;;;;;;;-13.21;60.16;97306.84;6217498;28;19925;-73
2023/01/31 16:16:34;;;;;;;;;;;;;;;-13.16;59.60;97315.47;6224223;28;19933;-74
2023/01/31 16:19:39;;;;;;;;;;;;;;;-13.08;59.93;97307.25;6218626;28;20307;-71
2023/01/31 16:22:54;;;;;;;;;;;;;;;-13.28;59.68;97304.06;6204070;28;20018;-72
2023/01/31 16:25:58;;;;;;;;;;;;;;;-13.04;59.52;97304.88;6222757;28;19925;-72
2023/01/31 16:29:07;;;;;;;;;;;;;;;-13.07;59.69;97309.00;6220161;28;19925;-72
2023/01/31 16:32:39;;;;;;;;;;;;;;;-13.24;59.58;97304.22;6218247;28;19925;-75
2023/01/31 16:35:39;;;;;;;;;;;;;;;-13.29;60.00;97303.22;6206135;28;19929;-74
2023/01/31 16:38:54;;;;;;;;;;;;;;;-13.25;60.21;97304.19;6220437;28;20340;-70
2023/01/31 16:41:59;;;;;;;;;;;;;;;-13.26;59.90;97305.84;6227100;28;19929;-71
2023/01/31 16:45:25;;;;;;;;;;;;;;;-13.23;59.62;97307.59;6219374;28;19976;-71
2023/01/31 16:48:33;;;;;;;;;;;;;;;-13.26;60.03;97303.31;6221111;28;20339;-73